Time;durP1;ratioP1;P1;durP2;ratioP2;P2;SDS_P1;SDS_P2;PMS_P1;PMS_P2;Temp;Humidity;BMP_temperature;BMP_pressure;BME280_temperature;BME280_humidity;BME280_pressure;Samples;Min_cycle;Max_cycle;Signal;HPM_P1;HPM_P2
2022/02/12 00:02:08;;;;;;;;;;;5.00;99.90;;;;;;5193257;27;44548;-81
2022/02/12 00:04:35;;;;;;;;;;;5.00;99.90;;;;;;5193615;27;43583;-81
2022/02/12 00:07:02;;;;;;;;;;;5.00;99.90;;;;;;5193425;27;42592;-81
2022/02/12 00:09:29;;;;;;;;;;;5.00;99.90;;;;;;5193509;27;43672;-81
2022/02/12 00:11:57;;;;;;;;;;;5.00;99.90;;;;;;5194052;27;43863;-81
2022/02/12 00:14:24;;;;;;;;;;;5.00;99.90;;;;;;5194202;27;44279;-81
2022/02/12 00:16:51;;;;;;;;;;;4.90;99.90;;;;;;5193627;27;44625;-81
2022/02/12 00:19:18;;;;;;;;;;;4.90;99.90;;;;;;5194717;27;42784;-81
2022/02/12 00:21:45;;;;;;;;;;;4.90;99.90;;;;;;5193973;27;45700;-81
2022/02/12 00:24:12;;;;;;;;;;;4.90;99.90;;;;;;5193974;27;44342;-81
2022/02/12 00:26:39;;;;;;;;;;;4.90;99.90;;;;;;5193365;27;44359;-81
2022/02/12 00:29:07;;;;;;;;;;;4.80;99.90;;;;;;5193564;27;44003;-81
2022/02/12 00:31:34;;;;;;;;;;;4.80;99.90;;;;;;5194625;27;43056;-81
2022/02/12 00:34:01;;;;;;;;;;;4.80;99.90;;;;;;5193161;27;45810;-81
2022/02/12 00:36:28;;;;;;;;;;;4.80;99.90;;;;;;5193263;27;45417;-81
2022/02/12 00:38:55;;;;;;;;;;;4.80;99.90;;;;;;5193458;27;43102;-81
2022/02/12 00:41:22;;;;;;;;;;;4.70;99.90;;;;;;5193358;27;44723;-81
2022/02/12 00:43:49;;;;;;;;;;;4.70;99.90;;;;;;5193333;27;43450;-81
2022/02/12 00:46:16;;;;;;;;;;;4.70;99.90;;;;;;5193344;27;46018;-81
2022/02/12 00:48:43;;;;;;;;;;;4.70;99.90;;;;;;5193624;27;44633;-81
2022/02/12 00:51:12;;;;;;;;;;;4.70;99.90;;;;;;5194542;27;42582;-81
2022/02/12 00:53:39;;;;;;;;;;;4.70;99.90;;;;;;5194444;27;45267;-81
2022/02/12 00:56:07;;;;;;;;;;;4.70;99.90;;;;;;5194522;27;44966;-81
2022/02/12 00:58:34;;;;;;;;;;;4.70;99.90;;;;;;5195112;27;44044;-81
2022/02/12 01:01:02;;;;;;;;;;;4.70;99.90;;;;;;5195339;27;44262;-81
2022/02/12 01:03:29;;;;;;;;;;;4.70;99.90;;;;;;5192793;27;44231;-81
2022/02/12 01:05:57;;;;;;;;;;;4.60;99.90;;;;;;5194447;27;45231;-81
2022/02/12 01:08:24;;;;;;;;;;;4.70;99.90;;;;;;5193135;27;42566;-81
2022/02/12 01:10:51;;;;;;;;;;;4.60;99.90;;;;;;5193661;27;43064;-81
2022/02/12 01:13:18;;;;;;;;;;;4.60;99.90;;;;;;5194483;27;44043;-80
2022/02/12 01:15:45;;;;;;;;;;;4.60;99.90;;;;;;5194865;27;44604;-81
2022/02/12 01:18:14;;;;;;;;;;;4.60;99.90;;;;;;5193431;27;44253;-81
2022/02/12 01:20:41;;;;;;;;;;;4.60;99.90;;;;;;5193890;27;43296;-81
2022/02/12 01:23:08;;;;;;;;;;;4.60;99.90;;;;;;5193729;27;44038;-81
2022/02/12 01:25:35;;;;;;;;;;;4.60;99.90;;;;;;5193149;27;43328;-81
2022/02/12 01:28:03;;;;;;;;;;;4.50;99.90;;;;;;5193231;27;42751;-81
2022/02/12 01:30:30;;;;;;;;;;;4.50;99.90;;;;;;5193393;27;44829;-81
2022/02/12 01:32:57;;;;;;;;;;;4.60;99.90;;;;;;5193529;27;43919;-81
2022/02/12 01:35:24;;;;;;;;;;;4.60;99.90;;;;;;5194895;27;45490;-82
2022/02/12 01:37:56;;;;;;;;;;;4.50;99.90;;;;;;5193144;27;43977;-81
2022/02/12 01:40:25;;;;;;;;;;;4.50;99.90;;;;;;5194379;27;44259;-81
2022/02/12 01:42:53;;;;;;;;;;;4.50;99.90;;;;;;5193417;27;43387;-81
2022/02/12 01:45:20;;;;;;;;;;;4.50;99.90;;;;;;5193328;27;44239;-81
2022/02/12 01:47:48;;;;;;;;;;;4.50;99.90;;;;;;5192908;27;43283;-81
2022/02/12 01:50:15;;;;;;;;;;;4.50;99.90;;;;;;5194192;27;43232;-81
2022/02/12 01:52:43;;;;;;;;;;;4.50;99.90;;;;;;5192900;27;42977;-81
2022/02/12 01:55:12;;;;;;;;;;;4.50;99.90;;;;;;5194075;27;44179;-81
2022/02/12 01:57:39;;;;;;;;;;;4.40;99.90;;;;;;5194030;27;44086;-81
2022/02/12 02:00:08;;;;;;;;;;;4.40;99.90;;;;;;5192702;27;44313;-81
2022/02/12 02:02:37;;;;;;;;;;;4.50;99.90;;;;;;5194020;27;43105;-82
2022/02/12 02:05:05;;;;;;;;;;;4.50;99.90;;;;;;5194089;27;42854;-81
2022/02/12 02:07:32;;;;;;;;;;;4.40;99.90;;;;;;5194099;27;43938;-82
2022/02/12 02:10:00;;;;;;;;;;;4.40;99.90;;;;;;5194542;27;43983;-81
2022/02/12 02:12:27;;;;;;;;;;;4.40;99.90;;;;;;5193022;27;43954;-81
2022/02/12 02:14:54;;;;;;;;;;;4.40;99.90;;;;;;5193963;27;42897;-81
2022/02/12 02:17:21;;;;;;;;;;;4.40;99.90;;;;;;5192680;27;45185;-82
2022/02/12 02:19:48;;;;;;;;;;;4.40;99.90;;;;;;5193259;27;43221;-81
2022/02/12 02:22:16;;;;;;;;;;;4.40;99.90;;;;;;5194542;27;44152;-81
2022/02/12 02:24:43;;;;;;;;;;;4.40;99.90;;;;;;5193824;27;44096;-81
2022/02/12 02:27:14;;;;;;;;;;;4.40;99.90;;;;;;5194455;27;43370;-82
2022/02/12 02:29:43;;;;;;;;;;;4.40;99.90;;;;;;5192885;27;43908;-82
2022/02/12 02:32:11;;;;;;;;;;;4.30;99.90;;;;;;5192514;27;44233;-82
2022/02/12 02:34:46;;;;;;;;;;;4.40;99.90;;;;;;5193270;27;44050;-82
2022/02/12 02:37:13;;;;;;;;;;;4.40;99.90;;;;;;5194515;27;44810;-82
2022/02/12 02:39:41;;;;;;;;;;;4.30;99.90;;;;;;5192474;27;45055;-82
2022/02/12 02:42:08;;;;;;;;;;;4.30;99.90;;;;;;5193842;27;44371;-82
2022/02/12 02:44:35;;;;;;;;;;;4.30;99.90;;;;;;5192698;27;43419;-82
2022/02/12 02:49:48;;;;;;;;;;;4.30;99.90;;;;;;5194360;27;44546;-82
2022/02/12 02:57:47;;;;;;;;;;;4.20;99.90;;;;;;5194439;27;44693;-82
2022/02/12 03:00:14;;;;;;;;;;;4.20;99.90;;;;;;5194365;27;43526;-82
2022/02/12 03:02:41;;;;;;;;;;;4.20;99.90;;;;;;5192299;27;44128;-82
2022/02/12 03:05:08;;;;;;;;;;;4.20;99.90;;;;;;5193106;27;43624;-82
2022/02/12 03:07:35;;;;;;;;;;;4.20;99.90;;;;;;5194462;27;42819;-81
2022/02/12 03:10:03;;;;;;;;;;;4.20;99.90;;;;;;5193074;27;45838;-81
2022/02/12 03:12:30;;;;;;;;;;;4.20;99.90;;;;;;5192312;27;43319;-82
2022/02/12 03:14:57;;;;;;;;;;;4.20;99.90;;;;;;5192982;27;44090;-81
2022/02/12 03:17:24;;;;;;;;;;;4.20;99.90;;;;;;5194562;27;43203;-82
2022/02/12 03:19:51;;;;;;;;;;;4.20;99.90;;;;;;5193054;27;44328;-81
2022/02/12 03:22:18;;;;;;;;;;;4.10;99.90;;;;;;5193116;27;44140;-82
2022/02/12 03:24:45;;;;;;;;;;;4.10;99.90;;;;;;5192269;27;46298;-82
2022/02/12 03:27:12;;;;;;;;;;;4.10;99.90;;;;;;5193187;27;44804;-82
2022/02/12 03:29:40;;;;;;;;;;;4.10;99.90;;;;;;5195134;27;44242;-82
2022/02/12 03:32:07;;;;;;;;;;;4.10;99.90;;;;;;5195172;27;43098;-82
2022/02/12 03:34:34;;;;;;;;;;;4.10;99.90;;;;;;5195173;27;45191;-82
2022/02/12 03:37:02;;;;;;;;;;;4.10;99.90;;;;;;5195074;27;43981;-81
2022/02/12 03:39:29;;;;;;;;;;;4.10;99.90;;;;;;5193779;27;43566;-82
2022/02/12 03:41:56;;;;;;;;;;;4.10;99.90;;;;;;5193703;27;44732;-82
2022/02/12 03:44:23;;;;;;;;;;;4.10;99.90;;;;;;5193699;27;44317;-81
2022/02/12 03:46:50;;;;;;;;;;;4.10;99.90;;;;;;5195172;27;42591;-82
2022/02/12 03:49:17;;;;;;;;;;;4.10;99.90;;;;;;5195522;27;43302;-82
2022/02/12 03:51:44;;;;;;;;;;;4.10;99.90;;;;;;5194076;27;44469;-82
2022/02/12 03:54:11;;;;;;;;;;;4.10;99.90;;;;;;5195042;27;43093;-82
2022/02/12 03:56:39;;;;;;;;;;;4.00;99.90;;;;;;5195083;27;42993;-81
2022/02/12 03:59:06;;;;;;;;;;;4.00;99.90;;;;;;5194069;27;44841;-82
2022/02/12 04:01:33;;;;;;;;;;;4.00;99.90;;;;;;5193413;27;43068;-81
2022/02/12 04:04:00;;;;;;;;;;;4.00;99.90;;;;;;5195011;27;42918;-81
2022/02/12 04:06:27;;;;;;;;;;;4.00;99.90;;;;;;5195601;27;43196;-82
2022/02/12 04:08:54;;;;;;;;;;;4.00;99.90;;;;;;5195036;27;39633;-81
2022/02/12 04:11:21;;;;;;;;;;;4.00;99.90;;;;;;5193919;27;45440;-82
2022/02/12 04:13:48;;;;;;;;;;;4.00;99.90;;;;;;5194774;27;42328;-81
2022/02/12 04:16:15;;;;;;;;;;;4.00;99.90;;;;;;5193938;27;44085;-82
2022/02/12 04:18:42;;;;;;;;;;;4.00;99.90;;;;;;5195156;27;43983;-81
2022/02/12 04:21:10;;;;;;;;;;;3.90;99.90;;;;;;5193994;27;45724;-82
2022/02/12 04:23:37;;;;;;;;;;;3.90;99.90;;;;;;5195243;27;45786;-82
2022/02/12 04:26:05;;;;;;;;;;;3.90;99.90;;;;;;5193398;27;44231;-81
2022/02/12 04:28:36;;;;;;;;;;;4.00;99.90;;;;;;5195399;27;43401;-81
2022/02/12 04:31:04;;;;;;;;;;;3.90;99.90;;;;;;5195006;27;43381;-81
2022/02/12 04:33:31;;;;;;;;;;;3.90;99.90;;;;;;5194776;27;43450;-82
2022/02/12 04:35:58;;;;;;;;;;;3.90;99.90;;;;;;5193446;27;42570;-82
2022/02/12 04:38:28;;;;;;;;;;;3.90;99.90;;;;;;5193427;27;43294;-81
2022/02/12 04:40:55;;;;;;;;;;;3.90;99.90;;;;;;5194529;27;43940;-81
2022/02/12 04:43:42;;;;;;;;;;;3.90;99.90;;;;;;5194182;27;45563;-81
2022/02/12 04:46:09;;;;;;;;;;;3.80;99.90;;;;;;5193280;27;45707;-81
2022/02/12 04:48:36;;;;;;;;;;;3.90;99.90;;;;;;5195137;27;45746;-81
2022/02/12 04:51:03;;;;;;;;;;;3.90;99.90;;;;;;5193375;27;44103;-81
2022/02/12 04:53:31;;;;;;;;;;;3.90;99.90;;;;;;5193159;27;43393;-81
2022/02/12 04:55:58;;;;;;;;;;;3.80;99.90;;;;;;5193379;27;43190;-81
2022/02/12 04:58:25;;;;;;;;;;;3.80;99.90;;;;;;5193288;27;43600;-81
2022/02/12 05:00:52;;;;;;;;;;;3.80;99.90;;;;;;5193337;27;43899;-81
2022/02/12 05:03:20;;;;;;;;;;;3.80;99.90;;;;;;5192981;27;44366;-81
2022/02/12 05:05:47;;;;;;;;;;;3.80;99.90;;;;;;5194467;27;43242;-81
2022/02/12 05:08:14;;;;;;;;;;;3.80;99.90;;;;;;5193266;27;43115;-81
2022/02/12 05:10:41;;;;;;;;;;;3.70;99.90;;;;;;5193325;27;43907;-81
2022/02/12 05:13:08;;;;;;;;;;;3.70;99.90;;;;;;5194419;27;43225;-81
2022/02/12 05:15:37;;;;;;;;;;;3.70;99.90;;;;;;5194754;27;43293;-81
2022/02/12 05:18:04;;;;;;;;;;;3.70;99.90;;;;;;5193778;27;43244;-81
2022/02/12 05:20:31;;;;;;;;;;;3.70;99.90;;;;;;5194764;27;44428;-81
2022/02/12 05:22:58;;;;;;;;;;;3.70;99.90;;;;;;5193060;27;44164;-81
2022/02/12 05:25:25;;;;;;;;;;;3.70;99.90;;;;;;5194253;27;44776;-81
2022/02/12 05:27:52;;;;;;;;;;;3.70;99.90;;;;;;5193117;27;44347;-81
2022/02/12 05:30:19;;;;;;;;;;;3.70;99.90;;;;;;5193233;27;43646;-81
2022/02/12 05:32:46;;;;;;;;;;;3.70;99.90;;;;;;5194201;27;43826;-81
2022/02/12 05:35:13;;;;;;;;;;;3.70;99.90;;;;;;5194299;27;43632;-81
2022/02/12 05:37:43;;;;;;;;;;;3.70;99.90;;;;;;5193087;27;44029;-81
2022/02/12 05:40:10;;;;;;;;;;;3.70;99.90;;;;;;5194529;27;43233;-81
2022/02/12 05:42:37;;;;;;;;;;;3.70;99.90;;;;;;5192830;27;42830;-81
2022/02/12 05:45:04;;;;;;;;;;;3.60;99.90;;;;;;5192896;27;44614;-81
2022/02/12 05:47:31;;;;;;;;;;;3.70;99.90;;;;;;5192915;27;43016;-81
2022/02/12 05:49:58;;;;;;;;;;;3.70;99.90;;;;;;5193959;27;43302;-81
2022/02/12 05:52:25;;;;;;;;;;;3.70;99.90;;;;;;5193982;27;43820;-81
2022/02/12 05:54:53;;;;;;;;;;;3.70;99.90;;;;;;5192911;27;45129;-81
2022/02/12 05:57:20;;;;;;;;;;;3.70;99.90;;;;;;5194207;27;42943;-82
2022/02/12 05:59:49;;;;;;;;;;;3.70;99.90;;;;;;5194816;27;44232;-81
2022/02/12 06:02:16;;;;;;;;;;;3.70;99.90;;;;;;5192892;27;43414;-82
2022/02/12 06:04:43;;;;;;;;;;;3.60;99.90;;;;;;5192777;27;44220;-81
2022/02/12 06:07:10;;;;;;;;;;;3.60;99.90;;;;;;5193020;27;43337;-81
2022/02/12 06:09:38;;;;;;;;;;;3.60;99.90;;;;;;5193338;27;45795;-81
2022/02/12 06:12:05;;;;;;;;;;;3.70;99.90;;;;;;5194072;27;44887;-81
2022/02/12 06:14:32;;;;;;;;;;;3.60;99.90;;;;;;5192637;27;43056;-81
2022/02/12 06:17:00;;;;;;;;;;;3.60;99.90;;;;;;5194045;27;42980;-82
2022/02/12 06:19:27;;;;;;;;;;;3.60;99.90;;;;;;5193411;27;44882;-81
2022/02/12 06:21:56;;;;;;;;;;;3.60;99.90;;;;;;5193049;27;43869;-81
2022/02/12 06:24:24;;;;;;;;;;;3.60;99.90;;;;;;5192657;27;43330;-82
2022/02/12 06:26:56;;;;;;;;;;;3.50;99.90;;;;;;5192424;27;43654;-81
2022/02/12 06:29:24;;;;;;;;;;;3.60;99.90;;;;;;5193979;27;43020;-81
2022/02/12 06:31:53;;;;;;;;;;;3.50;99.90;;;;;;5193896;27;43208;-81
2022/02/12 06:34:20;;;;;;;;;;;3.50;99.90;;;;;;5192434;27;45178;-81
2022/02/12 06:36:47;;;;;;;;;;;3.50;99.90;;;;;;5194520;27;44152;-82
2022/02/12 06:39:15;;;;;;;;;;;3.60;99.90;;;;;;5193943;27;42695;-81
2022/02/12 06:41:42;;;;;;;;;;;3.50;99.90;;;;;;5192498;27;44271;-81
2022/02/12 06:44:09;;;;;;;;;;;3.50;99.90;;;;;;5194345;27;46041;-81
2022/02/12 06:46:36;;;;;;;;;;;3.50;99.90;;;;;;5193216;27;44269;-82
2022/02/12 06:49:03;;;;;;;;;;;3.50;99.90;;;;;;5193252;27;44255;-81
2022/02/12 06:51:30;;;;;;;;;;;3.50;99.90;;;;;;5194445;27;44132;-81
2022/02/12 06:53:57;;;;;;;;;;;3.50;99.90;;;;;;5192326;27;43213;-82
2022/02/12 06:56:24;;;;;;;;;;;3.50;99.90;;;;;;5193701;27;43735;-81
2022/02/12 06:58:51;;;;;;;;;;;3.40;99.90;;;;;;5192385;27;43413;-81
2022/02/12 07:01:19;;;;;;;;;;;3.40;99.90;;;;;;5193233;27;43848;-82
2022/02/12 07:03:46;;;;;;;;;;;3.40;99.90;;;;;;5192653;27;44151;-82
2022/02/12 07:06:13;;;;;;;;;;;3.40;99.90;;;;;;5193947;27;42979;-82
2022/02/12 07:08:40;;;;;;;;;;;3.40;99.90;;;;;;5192529;27;43533;-81
2022/02/12 07:11:08;;;;;;;;;;;3.40;99.90;;;;;;5192445;27;45289;-82
2022/02/12 07:13:35;;;;;;;;;;;3.40;99.90;;;;;;5192517;27;43918;-81
2022/02/12 07:16:02;;;;;;;;;;;3.40;99.90;;;;;;5192367;27;43963;-81
2022/02/12 07:18:29;;;;;;;;;;;3.40;99.90;;;;;;5193745;27;42775;-81
2022/02/12 07:20:57;;;;;;;;;;;3.40;99.90;;;;;;5192528;27;43268;-81
2022/02/12 07:23:24;;;;;;;;;;;3.40;99.90;;;;;;5193473;27;45972;-81
2022/02/12 07:25:51;;;;;;;;;;;3.40;99.90;;;;;;5192402;27;42602;-82
2022/02/12 07:28:18;;;;;;;;;;;3.40;99.90;;;;;;5192788;27;45748;-81
2022/02/12 07:30:46;;;;;;;;;;;3.40;99.90;;;;;;5192325;27;44114;-81
2022/02/12 07:33:13;;;;;;;;;;;3.40;99.90;;;;;;5193658;27;42990;-81
2022/02/12 07:35:40;;;;;;;;;;;3.40;99.90;;;;;;5192358;27;44243;-81
2022/02/12 07:38:10;;;;;;;;;;;3.40;99.90;;;;;;5192336;27;43172;-81
2022/02/12 07:40:37;;;;;;;;;;;3.30;99.90;;;;;;5192754;27;44746;-81
2022/02/12 07:43:04;;;;;;;;;;;3.40;99.90;;;;;;5192779;27;43220;-81
2022/02/12 07:45:36;;;;;;;;;;;3.40;99.90;;;;;;5192481;27;43301;-81
2022/02/12 07:48:03;;;;;;;;;;;3.40;99.90;;;;;;5192315;27;42551;-81
2022/02/12 07:50:30;;;;;;;;;;;3.40;99.90;;;;;;5192953;27;44195;-81
2022/02/12 07:52:57;;;;;;;;;;;3.40;99.90;;;;;;5192155;27;44382;-81
2022/02/12 07:55:24;;;;;;;;;;;3.40;99.90;;;;;;5192290;27;42649;-81
2022/02/12 07:57:51;;;;;;;;;;;3.40;99.90;;;;;;5193648;27;44561;-81
2022/02/12 08:00:18;;;;;;;;;;;3.40;99.90;;;;;;5193681;27;44262;-81
2022/02/12 08:02:46;;;;;;;;;;;3.40;99.90;;;;;;5192066;27;43086;-81
2022/02/12 08:05:13;;;;;;;;;;;3.40;99.90;;;;;;5193575;27;43100;-81
2022/02/12 08:07:41;;;;;;;;;;;3.40;99.90;;;;;;5192724;27;45424;-81
2022/02/12 08:12:55;;;;;;;;;;;3.40;99.90;;;;;;5194728;27;44262;-81
2022/02/12 08:15:22;;;;;;;;;;;3.40;99.90;;;;;;5193981;27;44169;-81
2022/02/12 08:17:50;;;;;;;;;;;3.40;99.90;;;;;;5193278;27;45064;-81
2022/02/12 08:20:17;;;;;;;;;;;3.40;99.90;;;;;;5193340;27;45167;-81
2022/02/12 08:22:44;;;;;;;;;;;3.40;99.90;;;;;;5194119;27;45750;-81
2022/02/12 08:25:11;;;;;;;;;;;3.40;99.90;;;;;;5193436;27;44419;-82
2022/02/12 08:27:39;;;;;;;;;;;3.40;99.90;;;;;;5194807;27;43098;-81
2022/02/12 08:30:06;;;;;;;;;;;3.40;99.90;;;;;;5193399;27;43537;-81
2022/02/12 08:32:33;;;;;;;;;;;3.40;99.90;;;;;;5193367;27;43133;-81
2022/02/12 08:35:01;;;;;;;;;;;3.40;99.90;;;;;;5193130;27;44908;-81
2022/02/12 08:37:28;;;;;;;;;;;3.40;99.90;;;;;;5194016;27;43220;-81
2022/02/12 08:39:55;;;;;;;;;;;3.40;99.90;;;;;;5195143;27;43568;-81
2022/02/12 08:42:22;;;;;;;;;;;3.40;99.90;;;;;;5193267;27;42799;-81
2022/02/12 08:44:50;;;;;;;;;;;3.40;99.90;;;;;;5195150;27;45110;-81
2022/02/12 08:47:17;;;;;;;;;;;3.40;99.90;;;;;;5193318;27;43537;-81
2022/02/12 08:49:46;;;;;;;;;;;3.40;99.90;;;;;;5193826;27;45202;-81
2022/02/12 08:52:13;;;;;;;;;;;3.40;99.90;;;;;;5193508;27;43547;-81
2022/02/12 08:54:40;;;;;;;;;;;3.40;99.90;;;;;;5194596;27;43843;-81
2022/02/12 08:57:10;;;;;;;;;;;3.40;99.90;;;;;;5194561;27;42949;-81
2022/02/12 08:59:37;;;;;;;;;;;3.40;99.90;;;;;;5194615;27;43863;-81
2022/02/12 09:02:13;;;;;;;;;;;3.40;99.90;;;;;;5193106;27;43501;-81
2022/02/12 09:04:41;;;;;;;;;;;3.40;99.90;;;;;;5194167;27;44039;-81
2022/02/12 09:07:23;;;;;;;;;;;3.40;99.90;;;;;;5194486;27;44128;-81
2022/02/12 09:09:50;;;;;;;;;;;3.50;99.90;;;;;;5194882;27;44016;-81
2022/02/12 09:12:17;;;;;;;;;;;3.50;99.90;;;;;;5193248;27;42967;-81
2022/02/12 09:14:44;;;;;;;;;;;3.50;99.90;;;;;;5193544;27;45867;-81
2022/02/12 09:17:11;;;;;;;;;;;3.50;99.90;;;;;;5193966;27;44480;-82
2022/02/12 09:19:39;;;;;;;;;;;3.50;99.90;;;;;;5193808;27;43525;-81
2022/02/12 09:22:08;;;;;;;;;;;3.40;99.90;;;;;;5193783;27;44074;-81
2022/02/12 09:24:35;;;;;;;;;;;3.50;99.90;;;;;;5194018;27;44765;-81
2022/02/12 09:27:03;;;;;;;;;;;3.50;99.90;;;;;;5195051;27;43935;-81
2022/02/12 09:29:30;;;;;;;;;;;3.50;99.90;;;;;;5194376;27;43160;-81
2022/02/12 09:31:57;;;;;;;;;;;3.50;99.90;;;;;;5194352;27;43185;-81
2022/02/12 09:34:24;;;;;;;;;;;3.50;99.90;;;;;;5194856;27;44307;-81
2022/02/12 09:36:51;;;;;;;;;;;3.50;99.90;;;;;;5192845;27;44620;-81
2022/02/12 09:39:18;;;;;;;;;;;3.60;99.90;;;;;;5194231;27;45207;-81
2022/02/12 09:41:45;;;;;;;;;;;3.60;99.90;;;;;;5194383;27;42050;-81
2022/02/12 09:44:14;;;;;;;;;;;3.60;99.90;;;;;;5194263;27;42774;-81
2022/02/12 09:46:41;;;;;;;;;;;3.60;99.90;;;;;;5192881;27;43239;-81
2022/02/12 09:49:11;;;;;;;;;;;3.60;99.90;;;;;;5193451;27;45217;-81
2022/02/12 09:51:40;;;;;;;;;;;3.60;99.90;;;;;;5194155;27;44218;-81
2022/02/12 09:54:08;;;;;;;;;;;3.60;99.90;;;;;;5194727;27;44013;-81
2022/02/12 09:56:40;;;;;;;;;;;3.60;99.90;;;;;;5193416;27;44220;-81
2022/02/12 09:59:09;;;;;;;;;;;3.60;99.90;;;;;;5194059;27;46058;-81
2022/02/12 10:01:39;;;;;;;;;;;3.60;99.90;;;;;;5192775;27;44250;-81
2022/02/12 10:04:14;;;;;;;;;;;3.60;99.90;;;;;;5193541;27;44461;-81
2022/02/12 10:06:42;;;;;;;;;;;3.70;99.90;;;;;;5193326;27;44160;-81
2022/02/12 10:09:09;;;;;;;;;;;3.70;99.90;;;;;;5194478;27;44874;-81
2022/02/12 10:11:42;;;;;;;;;;;3.70;99.90;;;;;;5195013;27;19989;-81
2022/02/12 10:14:10;;;;;;;;;;;3.70;99.90;;;;;;5193201;27;43707;-81
2022/02/12 10:16:57;;;;;;;;;;;3.70;99.90;;;;;;5192587;27;45891;-82
2022/02/12 10:19:31;;;;;;;;;;;3.70;99.90;;;;;;5193128;27;44007;-82
2022/02/12 10:22:01;;;;;;;;;;;3.80;99.90;;;;;;5192557;27;43927;-81
2022/02/12 10:24:50;;;;;;;;;;;3.80;99.90;;;;;;5192661;27;44574;-81
2022/02/12 10:27:18;;;;;;;;;;;3.80;99.90;;;;;;5193297;27;44144;-82
2022/02/12 10:29:47;;;;;;;;;;;3.80;99.90;;;;;;5193926;27;43058;-81
2022/02/12 10:32:15;;;;;;;;;;;3.90;99.90;;;;;;5193900;27;45970;-82
2022/02/12 10:34:43;;;;;;;;;;;3.90;99.90;;;;;;5193943;27;44207;-82
2022/02/12 10:37:15;;;;;;;;;;;3.90;99.90;;;;;;5192547;27;43359;-81
2022/02/12 10:39:59;;;;;;;;;;;3.90;99.90;;;;;;5192512;27;45815;-81
2022/02/12 10:42:30;;;;;;;;;;;3.90;99.90;;;;;;5193701;27;20030;-81
2022/02/12 10:45:04;;;;;;;;;;;4.00;99.90;;;;;;5193301;27;44996;-82
2022/02/12 10:47:31;;;;;;;;;;;4.00;99.90;;;;;;5193046;27;44603;-81
2022/02/12 10:49:59;;;;;;;;;;;4.00;99.90;;;;;;5194226;27;43521;-81
2022/02/12 10:52:39;;;;;;;;;;;4.00;99.90;;;;;;5192521;27;43811;-81
2022/02/12 10:55:06;;;;;;;;;;;4.10;99.90;;;;;;5192886;27;44718;-81
2022/02/12 10:57:38;;;;;;;;;;;4.10;99.90;;;;;;5192482;27;44955;-81
2022/02/12 11:00:06;;;;;;;;;;;4.20;99.90;;;;;;5192687;27;44121;-81
2022/02/12 11:02:34;;;;;;;;;;;4.20;99.90;;;;;;5192330;27;43090;-81
2022/02/12 11:05:02;;;;;;;;;;;4.20;99.90;;;;;;5193835;27;43045;-81
2022/02/12 11:07:29;;;;;;;;;;;4.20;99.90;;;;;;5194414;27;44757;-81
2022/02/12 11:09:56;;;;;;;;;;;4.30;99.90;;;;;;5192280;27;44601;-81
2022/02/12 11:12:29;;;;;;;;;;;4.30;99.90;;;;;;5192370;27;43229;-81
2022/02/12 11:14:58;;;;;;;;;;;4.30;99.90;;;;;;5192516;27;42907;-81
2022/02/12 11:17:31;;;;;;;;;;;4.40;99.90;;;;;;5192320;27;44446;-81
2022/02/12 11:20:03;;;;;;;;;;;4.40;99.90;;;;;;5194411;27;43537;-81
2022/02/12 11:22:31;;;;;;;;;;;4.40;99.90;;;;;;5192350;27;42239;-81
2022/02/12 11:24:58;;;;;;;;;;;4.50;99.90;;;;;;5192607;27;43882;-82
2022/02/12 11:27:26;;;;;;;;;;;4.50;99.90;;;;;;5192472;27;42344;-80
2022/02/12 11:29:54;;;;;;;;;;;4.50;99.90;;;;;;5193689;27;43363;-81
2022/02/12 11:32:22;;;;;;;;;;;4.60;99.90;;;;;;5193509;27;44677;-81
2022/02/12 11:34:59;;;;;;;;;;;4.60;99.90;;;;;;5192163;27;42594;-80
2022/02/12 11:37:31;;;;;;;;;;;4.60;99.90;;;;;;5193169;27;43932;-81
2022/02/12 11:40:31;;;;;;;;;;;4.70;99.90;;;;;;5194342;27;43339;-81
2022/02/12 11:42:58;;;;;;;;;;;4.70;99.90;;;;;;5194281;27;44720;-81
2022/02/12 11:45:46;;;;;;;;;;;4.70;99.90;;;;;;5194186;27;44018;-80
2022/02/12 11:48:25;;;;;;;;;;;4.70;99.90;;;;;;5193698;27;44474;-81
2022/02/12 11:50:55;;;;;;;;;;;4.80;99.90;;;;;;5193931;27;44009;-81
2022/02/12 11:53:37;;;;;;;;;;;4.80;99.90;;;;;;5194292;27;45646;-81
2022/02/12 11:56:09;;;;;;;;;;;4.80;99.90;;;;;;5194966;27;42336;-81
2022/02/12 11:58:43;;;;;;;;;;;4.90;99.90;;;;;;5194729;27;44484;-81
2022/02/12 12:01:22;;;;;;;;;;;4.90;99.90;;;;;;5194010;27;44246;-81
2022/02/12 12:04:05;;;;;;;;;;;4.90;99.90;;;;;;5194140;27;45703;-81
2022/02/12 12:06:33;;;;;;;;;;;5.00;99.90;;;;;;5195221;27;43522;-81
2022/02/12 12:09:04;;;;;;;;;;;5.00;99.90;;;;;;5193568;27;44175;-81
2022/02/12 12:11:31;;;;;;;;;;;5.10;99.90;;;;;;5194793;27;43540;-81
2022/02/12 12:14:18;;;;;;;;;;;5.10;99.90;;;;;;5193440;27;44587;-81
2022/02/12 12:16:55;;;;;;;;;;;5.10;99.90;;;;;;5195237;27;45334;-81
2022/02/12 12:19:30;;;;;;;;;;;5.10;99.90;;;;;;5194070;27;44832;-81
2022/02/12 12:21:58;;;;;;;;;;;5.10;99.90;;;;;;5195715;27;44266;-81
2022/02/12 12:24:25;;;;;;;;;;;5.20;99.90;;;;;;5193529;27;43234;-81
2022/02/12 12:26:52;;;;;;;;;;;5.20;99.90;;;;;;5194111;27;43457;-81
2022/02/12 12:32:10;;;;;;;;;;;5.30;99.90;;;;;;5195214;27;46165;-81
2022/02/12 12:34:52;;;;;;;;;;;5.30;99.90;;;;;;5193365;27;42383;-81
2022/02/12 12:37:20;;;;;;;;;;;5.40;99.90;;;;;;5193851;27;45304;-81
2022/02/12 12:39:47;;;;;;;;;;;5.40;99.90;;;;;;5194590;27;44302;-81
2022/02/12 12:42:16;;;;;;;;;;;5.40;99.90;;;;;;5193197;27;44699;-81
2022/02/12 12:44:55;;;;;;;;;;;5.50;99.90;;;;;;5195077;27;43976;-81
2022/02/12 12:47:22;;;;;;;;;;;5.50;99.90;;;;;;5193987;27;44665;-81
2022/02/12 12:49:52;;;;;;;;;;;5.50;99.90;;;;;;5193255;27;42594;-81
2022/02/12 12:52:23;;;;;;;;;;;5.60;99.90;;;;;;5193641;27;43237;-81
2022/02/12 12:54:54;;;;;;;;;;;5.60;99.90;;;;;;5194293;27;43729;-81
2022/02/12 12:57:25;;;;;;;;;;;5.60;99.90;;;;;;5193312;27;44050;-81
2022/02/12 12:59:57;;;;;;;;;;;5.70;99.90;;;;;;5194448;27;43225;-81
2022/02/12 13:02:25;;;;;;;;;;;5.70;99.90;;;;;;5193493;27;44449;-82
2022/02/12 13:04:53;;;;;;;;;;;5.70;99.90;;;;;;5193378;27;43214;-81
2022/02/12 13:07:22;;;;;;;;;;;5.80;99.90;;;;;;5195040;27;44681;-81
2022/02/12 13:09:49;;;;;;;;;;;5.80;99.90;;;;;;5193143;27;43769;-81
2022/02/12 13:12:32;;;;;;;;;;;5.80;99.90;;;;;;5193126;27;43209;-81
2022/02/12 13:15:06;;;;;;;;;;;5.90;99.90;;;;;;5194333;27;44149;-81
2022/02/12 13:17:39;;;;;;;;;;;5.90;99.90;;;;;;5193089;27;44087;-81
2022/02/12 13:20:07;;;;;;;;;;;5.90;99.90;;;;;;5193352;27;43239;-81
2022/02/12 13:22:36;;;;;;;;;;;5.90;99.90;;;;;;5193217;27;42846;-82
2022/02/12 13:25:12;;;;;;;;;;;6.00;99.90;;;;;;5193059;27;42350;-81
2022/02/12 13:27:41;;;;;;;;;;;6.00;99.90;;;;;;5194358;27;44933;-82
2022/02/12 13:30:10;;;;;;;;;;;6.10;99.90;;;;;;5194734;27;45736;-81
2022/02/12 13:32:42;;;;;;;;;;;6.10;99.90;;;;;;5194661;27;42744;-81
2022/02/12 13:35:11;;;;;;;;;;;6.10;99.90;;;;;;5192774;27;44086;-81
2022/02/12 13:37:39;;;;;;;;;;;6.20;99.90;;;;;;5192913;27;45224;-81
2022/02/12 13:40:10;;;;;;;;;;;6.20;99.90;;;;;;5192769;27;44083;-81
2022/02/12 13:42:38;;;;;;;;;;;6.20;99.90;;;;;;5194442;27;45102;-81
2022/02/12 13:45:05;;;;;;;;;;;6.30;99.90;;;;;;5192815;27;44270;-81
2022/02/12 13:47:33;;;;;;;;;;;6.30;99.90;;;;;;5192812;27;44189;-81
2022/02/12 13:50:01;;;;;;;;;;;6.30;99.90;;;;;;5194788;27;44081;-81
2022/02/12 13:52:28;;;;;;;;;;;6.40;99.90;;;;;;5194222;27;44917;-81
2022/02/12 13:55:03;;;;;;;;;;;6.40;99.90;;;;;;5193307;27;44689;-81
2022/02/12 13:57:30;;;;;;;;;;;6.40;99.90;;;;;;5193591;27;44327;-81
2022/02/12 13:59:58;;;;;;;;;;;6.40;99.90;;;;;;5194287;27;43862;-81
2022/02/12 14:02:25;;;;;;;;;;;6.50;99.90;;;;;;5192458;27;43975;-81
2022/02/12 14:04:53;;;;;;;;;;;6.50;99.90;;;;;;5194150;27;43900;-81
2022/02/12 14:07:20;;;;;;;;;;;6.60;99.90;;;;;;5194545;27;45775;-81
2022/02/12 14:09:47;;;;;;;;;;;6.60;99.90;;;;;;5192682;27;42986;-81
2022/02/12 14:12:17;;;;;;;;;;;6.60;99.90;;;;;;5194631;27;43297;-81
2022/02/12 14:14:44;;;;;;;;;;;6.70;99.90;;;;;;5194716;27;43992;-81
2022/02/12 14:17:11;;;;;;;;;;;6.70;99.90;;;;;;5195023;27;20356;-81
2022/02/12 14:19:38;;;;;;;;;;;6.70;99.90;;;;;;5192646;27;43314;-81
2022/02/12 14:22:07;;;;;;;;;;;6.70;99.90;;;;;;5192717;27;43923;-81
2022/02/12 14:24:34;;;;;;;;;;;6.80;99.90;;;;;;5194343;27;43514;-81
2022/02/12 14:27:02;;;;;;;;;;;6.80;99.90;;;;;;5194149;27;43103;-81
2022/02/12 14:29:29;;;;;;;;;;;6.80;99.90;;;;;;5192518;27;43945;-81
2022/02/12 14:32:00;;;;;;;;;;;6.80;99.90;;;;;;5194325;27;44115;-81
2022/02/12 14:34:28;;;;;;;;;;;6.80;99.90;;;;;;5194496;27;44219;-81
2022/02/12 14:36:55;;;;;;;;;;;6.90;99.90;;;;;;5193191;27;43834;-82
2022/02/12 14:39:22;;;;;;;;;;;6.90;99.90;;;;;;5192626;27;42910;-81
2022/02/12 14:41:49;;;;;;;;;;;6.90;99.90;;;;;;5192586;27;42966;-81
2022/02/12 14:44:18;;;;;;;;;;;6.90;99.90;;;;;;5193286;27;43334;-81
2022/02/12 14:46:45;;;;;;;;;;;6.90;99.90;;;;;;5193859;27;42997;-81
2022/02/12 14:49:17;;;;;;;;;;;6.90;99.90;;;;;;5194494;27;44266;-81
2022/02/12 14:51:45;;;;;;;;;;;7.00;99.90;;;;;;5193911;27;43137;-81
2022/02/12 14:54:12;;;;;;;;;;;7.00;99.90;;;;;;5192688;27;43573;-81